Weather Data

Pearl Creek Farm: 8878 N Farm Road 75, Walnut Grove MO 65770

<== Previous Day (Wednesday 01 Jan 2020) | Next Day (Friday 03 Jan 2020) ==>

Summary Precipitation Data For Thursday 02 January 2020

ElementValueUnits
Precipitation0"
NotesAny precipitation for this day was included with a multiple-day report on 03 January 2020.
SourcePearl Creek Farm

Summary Temperature Data For Thursday 02 January 2020

ElementValueUnits
High Temperature53 oF
Low Temperature39 oF
Average Temperature46 oF
High Humidity93 %
Low Humidity70 %
Average Humidity82 %
SourceSpringfield-Branson National Airport (SGF)

Detail Temperature Data For Thursday 02 January 2020

Date / TimeTemp (F)RH (%)Dew Pt (F)Report Date / TimeSource
2020-01-02 00:52:00 39 70 30.0 2021-01-15 18:54:53.841352 Springfield-Branson National Airport (SGF)
2020-01-02 01:52:00 39 73 31.0 2021-01-15 18:54:53.841352 Springfield-Branson National Airport (SGF)
2020-01-02 02:52:00 40 77 33.0 2021-01-15 18:54:53.841352 Springfield-Branson National Airport (SGF)
2020-01-02 03:52:00 40 79 34.0 2021-01-15 18:54:53.841352 Springfield-Branson National Airport (SGF)
2020-01-02 04:52:00 41 79 35.0 2021-01-15 18:54:53.841352 Springfield-Branson National Airport (SGF)
2020-01-02 05:52:00 42 82 37.0 2021-01-15 18:54:53.841352 Springfield-Branson National Airport (SGF)
2020-01-02 06:52:00 42 85 38.0 2021-01-15 18:54:53.841352 Springfield-Branson National Airport (SGF)
2020-01-02 07:52:00 42 89 39.0 2021-01-15 18:54:53.841352 Springfield-Branson National Airport (SGF)
2020-01-02 08:52:00 45 86 41.0 2021-01-15 18:54:53.841352 Springfield-Branson National Airport (SGF)
2020-01-02 09:52:00 47 83 42.0 2021-01-15 18:54:53.841352 Springfield-Branson National Airport (SGF)
2020-01-02 10:52:00 49 80 43.0 2021-01-15 18:54:53.841352 Springfield-Branson National Airport (SGF)
2020-01-02 11:52:00 50 80 44.0 2021-01-15 18:54:53.841352 Springfield-Branson National Airport (SGF)
2020-01-02 12:52:00 52 77 45.0 2021-01-15 18:54:53.841352 Springfield-Branson National Airport (SGF)
2020-01-02 13:52:00 53 74 45.0 2021-01-15 18:54:53.841352 Springfield-Branson National Airport (SGF)
2020-01-02 14:52:00 53 74 45.0 2021-01-15 18:54:53.841352 Springfield-Branson National Airport (SGF)
2020-01-02 15:52:00 52 77 45.0 2021-01-15 18:54:53.841352 Springfield-Branson National Airport (SGF)
2020-01-02 16:52:00 50 80 44.0 2021-01-15 18:54:53.841352 Springfield-Branson National Airport (SGF)
2020-01-02 17:52:00 49 80 43.0 2021-01-15 18:54:53.841352 Springfield-Branson National Airport (SGF)
2020-01-02 18:52:00 47 86 43.0 2021-01-15 18:54:53.841352 Springfield-Branson National Airport (SGF)
2020-01-02 19:52:00 45 93 43.0 2021-01-15 18:54:53.841352 Springfield-Branson National Airport (SGF)
2020-01-02 20:52:00 46 89 43.0 2021-01-15 18:54:53.841352 Springfield-Branson National Airport (SGF)
2020-01-02 21:52:00 46 89 43.0 2021-01-15 18:54:53.841352 Springfield-Branson National Airport (SGF)
2020-01-02 22:52:00 46 89 43.0 2021-01-15 18:54:53.841352 Springfield-Branson National Airport (SGF)
2020-01-02 23:52:00 46 93 44.0 2021-01-15 18:54:53.841352 Springfield-Branson National Airport (SGF)

A total of 24 rows are displayed.